Time;durP1;ratioP1;P1;durP2;ratioP2;P2;SDS_P1;SDS_P2;PMS_P1;PMS_P2;Temp;Humidity;BMP_temperature;BMP_pressure;BME280_temperature;BME280_humidity;BME280_pressure;Samples;Min_cycle;Max_cycle;Signal;HPM_P1;HPM_P2
2022/10/19 04:00:26;;;;;;;0.63;0.63;;;12.00;99.90;;;;;;6188454;22;20951;-69
2022/10/19 04:02:52;;;;;;;1.40;0.50;;;11.90;99.90;;;;;;6239614;23;20170;-70
2022/10/19 04:05:19;;;;;;;0.45;0.45;;;11.90;99.90;;;;;;6241975;23;20179;-70
2022/10/19 04:07:46;;;;;;;0.70;0.70;;;11.90;99.90;;;;;;6242098;23;20225;-68
2022/10/19 04:10:12;;;;;;;0.50;0.50;;;11.90;99.90;;;;;;6241850;22;20210;-70
2022/10/19 04:12:39;;;;;;;0.45;0.45;;;11.90;99.90;;;;;;6241282;23;20289;-70
2022/10/19 04:15:07;;;;;;;0.95;0.43;;;11.90;99.90;;;;;;6241950;23;20185;-70
2022/10/19 04:17:35;;;;;;;1.33;0.43;;;11.90;99.90;;;;;;6242033;23;20182;-70
2022/10/19 04:20:01;;;;;;;2.53;0.57;;;11.90;99.90;;;;;;6242265;23;20185;-70
2022/10/19 04:22:28;;;;;;;3.72;0.50;;;11.90;99.90;;;;;;6241033;22;20672;-70
2022/10/19 04:24:55;;;;;;;1.15;0.75;;;11.90;99.90;;;;;;6241213;23;20179;-70
2022/10/19 04:27:21;;;;;;;0.35;0.20;;;11.90;99.90;;;;;;6215008;23;20198;-69
2022/10/19 04:29:48;;;;;;;0.55;0.50;;;12.00;99.90;;;;;;6242168;23;20203;-69
2022/10/19 04:32:15;;;;;;;0.85;0.65;;;12.00;99.90;;;;;;6241441;22;20203;-70
2022/10/19 04:34:43;;;;;;;0.60;0.37;;;12.00;99.90;;;;;;6240358;23;20630;-70
2022/10/19 04:37:10;;;;;;;0.40;0.40;;;12.00;99.90;;;;;;6241205;23;20513;-70
2022/10/19 04:39:39;;;;;;;7.57;0.75;;;12.00;99.90;;;;;;6241812;23;20177;-70
2022/10/19 04:42:06;;;;;;;0.70;0.43;;;12.00;99.90;;;;;;6241295;22;20201;-70
2022/10/19 04:44:33;;;;;;;0.77;0.77;;;12.00;99.90;;;;;;6241307;23;20668;-70
2022/10/19 04:46:59;;;;;;;0.93;0.38;;;12.00;99.90;;;;;;6242260;23;20421;-70
2022/10/19 04:49:26;;;;;;;2.45;0.85;;;12.00;99.90;;;;;;6240644;23;20199;-70
2022/10/19 04:51:54;;;;;;;0.45;0.45;;;12.00;99.90;;;;;;6239851;22;20247;-69
2022/10/19 04:54:21;;;;;;;0.40;0.40;;;12.00;99.90;;;;;;6240904;23;20486;-70
2022/10/19 04:56:47;;;;;;;0.20;0.20;;;12.00;99.90;;;;;;6240328;23;20208;-70
2022/10/19 04:59:14;;;;;;;0.75;0.50;;;12.00;99.90;;;;;;6243578;23;20187;-72
2022/10/19 05:01:41;;;;;;;0.20;0.20;;;12.00;99.90;;;;;;6242972;22;20211;-69
2022/10/19 05:04:10;;;;;;;0.20;0.20;;;12.00;99.90;;;;;;6243406;23;20502;-69
2022/10/19 05:06:36;;;;;;;0.17;0.17;;;12.00;99.90;;;;;;6242932;23;20432;-69
2022/10/19 05:09:04;;;;;;;6.27;0.93;;;12.00;99.90;;;;;;6253151;23;20499;-69
2022/10/19 05:11:31;;;;;;;5.07;0.40;;;12.00;99.90;;;;;;6243134;22;20445;-69
2022/10/19 05:13:58;;;;;;;0.30;0.30;;;12.00;99.90;;;;;;6243077;23;20182;-70
2022/10/19 05:16:25;;;;;;;0.70;0.27;;;12.00;99.90;;;;;;6244132;23;20491;-69
2022/10/19 05:18:54;;;;;;;5.50;0.70;;;12.00;99.90;;;;;;6243428;23;20420;-69
2022/10/19 05:21:22;;;;;;;0.20;0.20;;;11.90;99.90;;;;;;6242952;22;20994;-69
2022/10/19 05:23:52;;;;;;;1.27;0.37;;;11.90;99.90;;;;;;6242800;23;20190;-69
2022/10/19 05:26:22;;;;;;;0.40;0.40;;;11.90;99.90;;;;;;6242336;23;20428;-69
2022/10/19 05:28:50;;;;;;;0.30;0.30;;;12.00;99.90;;;;;;6242837;23;20633;-69
2022/10/19 05:31:19;;;;;;;4.35;0.50;;;11.90;99.90;;;;;;6242852;22;20219;-69
2022/10/19 05:33:46;;;;;;;1.80;0.37;;;12.00;99.90;;;;;;6242850;23;20195;-69
2022/10/19 05:36:15;;;;;;;2.35;0.28;;;11.90;99.90;;;;;;6242922;23;20428;-69
2022/10/19 05:38:42;;;;;;;2.70;0.38;;;11.90;99.90;;;;;;6242429;23;20213;-70
2022/10/19 05:41:09;;;;;;;0.20;0.20;;;11.90;99.90;;;;;;6242870;22;20517;-70
2022/10/19 05:43:37;;;;;;;0.57;0.57;;;11.90;99.90;;;;;;6242576;23;20206;-70
2022/10/19 05:46:05;;;;;;;1.23;0.60;;;12.00;99.90;;;;;;6242430;23;20623;-70
2022/10/19 05:48:32;;;;;;;1.27;1.27;;;12.00;99.90;;;;;;6242257;23;20193;-70
2022/10/19 05:50:59;;;;;;;0.20;0.20;;;11.90;99.90;;;;;;6243178;22;20455;-70
2022/10/19 05:53:26;;;;;;;0.35;0.35;;;12.00;99.90;;;;;;6242904;23;20425;-69
2022/10/19 05:55:53;;;;;;;5.13;0.50;;;12.00;99.90;;;;;;6242548;23;20187;-68
2022/10/19 05:58:20;;;;;;;1.38;0.30;;;12.00;99.90;;;;;;6243163;23;20183;-69
2022/10/19 06:00:52;;;;;;;0.65;0.20;;;12.00;99.90;;;;;;6252550;22;20226;-71
2022/10/19 06:03:20;;;;;;;0.20;0.20;;;12.00;99.90;;;;;;6243208;23;20471;-70
2022/10/19 06:05:47;;;;;;;0.90;0.90;;;12.00;99.90;;;;;;6240025;23;20183;-70
2022/10/19 06:08:14;;;;;;;0.33;0.33;;;12.00;99.90;;;;;;6241275;23;20509;-70
2022/10/19 06:10:41;;;;;;;0.37;0.17;;;12.00;99.90;;;;;;6240875;22;20469;-70
2022/10/19 06:13:08;;;;;;;0.60;0.20;;;12.00;99.90;;;;;;6241424;23;20433;-70
2022/10/19 06:15:35;;;;;;;1.20;0.30;;;12.00;99.90;;;;;;6243049;23;20721;-70
2022/10/19 06:18:05;;;;;;;2.37;0.40;;;12.00;99.90;;;;;;6241780;23;20183;-70
2022/10/19 06:20:34;;;;;;;0.40;0.40;;;12.00;99.90;;;;;;6243014;22;20445;-70
2022/10/19 06:23:00;;;;;;;0.20;0.20;;;12.00;99.90;;;;;;6241924;23;20196;-69
2022/10/19 06:25:27;;;;;;;0.20;0.20;;;12.00;99.90;;;;;;6241848;23;20912;-70
2022/10/19 06:27:54;;;;;;;3.33;0.40;;;12.00;99.90;;;;;;6240847;23;20186;-71
2022/10/19 06:30:21;;;;;;;0.20;0.20;;;12.00;99.90;;;;;;6241956;22;20553;-70
2022/10/19 06:32:47;;;;;;;0.30;0.30;;;12.10;99.90;;;;;;6241590;23;21102;-68
2022/10/19 06:35:15;;;;;;;1.80;0.50;;;12.10;99.90;;;;;;6242026;23;20443;-69
2022/10/19 06:37:42;;;;;;;0.20;0.20;;;12.10;99.90;;;;;;6242187;23;20190;-69
2022/10/19 06:40:10;;;;;;;1.90;0.30;;;12.10;99.90;;;;;;6241541;23;20418;-69
2022/10/19 06:42:38;;;;;;;0.50;0.30;;;12.10;99.90;;;;;;6242229;23;20464;-70
2022/10/19 06:45:06;;;;;;;0.53;0.53;;;12.10;99.90;;;;;;6242682;23;20187;-70
2022/10/19 06:47:33;;;;;;;1.05;0.25;;;12.10;99.90;;;;;;6242204;23;20437;-69
2022/10/19 06:50:00;;;;;;;3.63;0.30;;;12.20;99.90;;;;;;6242495;23;20207;-70
2022/10/19 06:52:28;;;;;;;0.50;0.50;;;12.20;99.90;;;;;;6240760;22;20502;-70
2022/10/19 06:54:55;;;;;;;3.67;0.73;;;12.30;99.90;;;;;;6240293;23;20423;-69
2022/10/19 06:57:21;;;;;;;0.30;0.30;;;12.30;99.90;;;;;;6241732;23;20180;-70
2022/10/19 06:59:48;;;;;;;0.40;0.27;;;12.50;99.90;;;;;;6241283;23;20441;-69
2022/10/19 07:02:15;;;;;;;0.40;0.20;;;12.60;99.90;;;;;;6242165;22;20775;-70
2022/10/19 07:04:42;;;;;;;0.50;0.50;;;12.70;99.90;;;;;;6239473;23;20430;-71
2022/10/19 07:07:09;;;;;;;2.47;0.50;;;12.60;99.90;;;;;;6241589;23;20432;-71
2022/10/19 07:09:37;;;;;;;0.83;0.60;;;12.60;99.90;;;;;;6242481;23;20429;-71
2022/10/19 07:12:04;;;;;;;0.43;0.43;;;12.50;99.90;;;;;;6241454;22;21023;-71
2022/10/19 07:14:37;;;;;;;3.30;0.60;;;12.40;99.90;;;;;;6241264;23;20427;-72
2022/10/19 07:17:04;;;;;;;0.30;0.30;;;12.40;99.90;;;;;;6241856;23;20889;-70
2022/10/19 07:19:31;;;;;;;0.20;0.20;;;12.40;99.90;;;;;;6241266;23;21153;-71
2022/10/19 07:21:58;;;;;;;0.20;0.20;;;12.30;99.90;;;;;;6240041;22;20439;-72
2022/10/19 07:24:25;;;;;;;0.17;0.17;;;12.30;99.90;;;;;;6240368;23;20441;-70
2022/10/19 07:26:53;;;;;;;3.70;2.00;;;12.30;99.90;;;;;;6241968;23;20402;-69
2022/10/19 07:29:19;;;;;;;0.47;0.47;;;12.30;99.90;;;;;;6242294;23;20426;-69
2022/10/19 07:31:46;;;;;;;0.30;0.30;;;12.30;99.90;;;;;;6241686;22;20450;-71
2022/10/19 07:34:15;;;;;;;0.20;0.20;;;12.30;99.90;;;;;;6241518;23;20434;-70
2022/10/19 07:36:46;;;;;;;3.40;0.53;;;12.30;99.90;;;;;;6242362;23;20487;-72
2022/10/19 07:39:15;;;;;;;0.40;0.40;;;12.30;99.90;;;;;;6242299;23;20406;-69
2022/10/19 07:41:43;;;;;;;0.30;0.30;;;12.30;99.90;;;;;;6241477;22;20438;-69
2022/10/19 07:44:11;;;;;;;0.20;0.20;;;12.40;99.90;;;;;;6242152;23;20445;-70
2022/10/19 07:46:39;;;;;;;7.20;1.00;;;12.40;99.90;;;;;;6241361;23;20608;-70
2022/10/19 07:49:09;;;;;;;0.28;0.28;;;12.40;99.90;;;;;;6242358;23;20757;-71
2022/10/19 07:51:36;;;;;;;0.55;0.43;;;12.40;99.90;;;;;;6241789;22;20310;-69
2022/10/19 07:54:04;;;;;;;3.10;0.85;;;12.40;99.90;;;;;;6241647;23;20179;-70
2022/10/19 07:56:31;;;;;;;0.40;0.40;;;12.40;99.90;;;;;;6241157;23;20179;-70
2022/10/19 07:58:59;;;;;;;3.80;0.63;;;12.40;99.90;;;;;;6242032;23;20479;-71
2022/10/19 08:01:28;;;;;;;1.23;0.45;;;12.50;99.90;;;;;;6241098;22;20473;-70
2022/10/19 08:03:57;;;;;;;6.30;0.60;;;12.50;99.90;;;;;;6241774;23;20185;-70
2022/10/19 08:06:24;;;;;;;3.53;0.57;;;12.50;99.90;;;;;;6241656;23;20535;-70
2022/10/19 08:08:51;;;;;;;1.13;0.40;;;12.60;99.90;;;;;;6241109;23;20179;-70
2022/10/19 08:11:20;;;;;;;0.30;0.30;;;12.60;99.90;;;;;;6240485;22;20459;-71
2022/10/19 08:13:47;;;;;;;8.23;0.70;;;12.70;99.90;;;;;;6241148;23;20529;-71
2022/10/19 08:16:23;;;;;;;2.67;0.30;;;12.70;99.90;;;;;;6242287;23;20428;-74
2022/10/19 08:18:51;;;;;;;0.40;0.40;;;12.70;99.90;;;;;;6242052;23;20500;-70
2022/10/19 08:21:18;;;;;;;0.52;0.52;;;12.70;99.90;;;;;;6241180;22;20944;-71
2022/10/19 08:23:45;;;;;;;1.20;0.77;;;12.80;99.90;;;;;;6241065;23;20187;-69
2022/10/19 08:26:11;;;;;;;3.03;0.60;;;12.80;99.90;;;;;;6241997;23;20429;-70
2022/10/19 08:28:38;;;;;;;0.67;0.33;;;12.80;99.90;;;;;;6242187;23;20516;-70
2022/10/19 08:31:12;;;;;;;0.50;0.40;;;12.90;99.90;;;;;;6241601;22;20454;-66
2022/10/19 08:33:40;;;;;;;5.93;0.60;;;12.80;99.90;;;;;;6241737;23;20421;-67
2022/10/19 08:36:09;;;;;;;1.30;0.37;;;12.80;99.90;;;;;;6241925;23;20421;-66
2022/10/19 08:38:36;;;;;;;3.60;0.37;;;12.70;99.90;;;;;;6240978;23;20444;-66
2022/10/19 08:41:16;;;;;;;4.83;0.43;;;12.80;99.90;;;;;;6241281;22;20444;-67
2022/10/19 08:43:56;;;;;;;3.30;0.50;;;12.90;99.90;;;;;;6242087;23;20407;-67
2022/10/19 08:46:28;;;;;;;2.40;0.60;;;13.00;99.90;;;;;;6241634;23;20418;-68
2022/10/19 08:48:56;;;;;;;0.73;0.57;;;13.10;99.90;;;;;;6241503;23;20464;-66
2022/10/19 08:51:24;;;;;;;0.20;0.20;;;13.30;99.90;;;;;;6240789;22;20971;-66
2022/10/19 08:53:55;;;;;;;1.90;0.30;;;13.40;99.90;;;;;;6241269;23;20963;-67
2022/10/19 08:56:28;;;;;;;4.67;1.20;;;13.30;99.90;;;;;;6241143;23;20414;-66
2022/10/19 08:59:08;;;;;;;6.53;0.87;;;13.40;99.90;;;;;;6241216;23;20418;-66
2022/10/19 09:01:43;;;;;;;2.67;0.23;;;13.30;99.90;;;;;;6241627;22;20471;-66
2022/10/19 09:04:14;;;;;;;1.27;0.80;;;13.40;99.90;;;;;;6242009;23;20782;-66
2022/10/19 09:06:52;;;;;;;0.90;0.90;;;13.40;99.90;;;;;;6239986;23;20897;-67
2022/10/19 09:09:20;;;;;;;1.50;0.30;;;13.50;99.90;;;;;;6241384;23;20436;-66
2022/10/19 09:11:50;;;;;;;1.70;0.30;;;13.60;99.90;;;;;;6240965;22;20462;-66
2022/10/19 09:14:21;;;;;;;1.07;0.47;;;13.70;99.90;;;;;;6241374;23;20486;-67
2022/10/19 09:16:47;;;;;;;0.30;0.30;;;13.80;99.90;;;;;;6241369;23;20717;-66
2022/10/19 09:19:20;;;;;;;0.30;0.30;;;13.80;99.90;;;;;;6241158;23;20426;-67
2022/10/19 09:21:51;;;;;;;0.30;0.30;;;13.80;99.90;;;;;;6240723;22;20439;-66
2022/10/19 09:24:28;;;;;;;0.40;0.40;;;13.80;99.90;;;;;;6241684;23;20750;-65
2022/10/19 09:26:57;;;;;;;2.00;0.30;;;13.70;99.90;;;;;;6240719;23;20407;-65
2022/10/19 09:29:29;;;;;;;1.80;0.30;;;13.80;99.90;;;;;;6240805;23;20828;-66
2022/10/19 09:31:59;;;;;;;0.93;0.80;;;13.80;99.90;;;;;;6241580;22;20446;-66
2022/10/19 09:34:29;;;;;;;3.07;0.30;;;13.80;99.90;;;;;;6241494;23;20422;-66
2022/10/19 09:36:58;;;;;;;1.23;0.40;;;13.70;99.90;;;;;;6241173;23;20406;-66
2022/10/19 09:39:26;;;;;;;4.30;1.13;;;13.60;99.90;;;;;;6240992;23;20426;-65
2022/10/19 09:41:56;;;;;;;0.30;0.30;;;13.50;99.90;;;;;;6240559;22;20445;-66
2022/10/19 09:44:23;;;;;;;0.40;0.40;;;13.40;99.90;;;;;;6241903;23;20430;-66
2022/10/19 09:46:55;;;;;;;1.13;0.40;;;13.40;99.90;;;;;;6243577;23;20429;-66
2022/10/19 09:49:39;;;;;;;0.40;0.40;;;13.50;99.90;;;;;;6242896;23;20406;-66
2022/10/19 09:52:23;;;;;;;2.20;0.63;;;13.60;99.90;;;;;;6243297;22;20450;-68
2022/10/19 09:54:58;;;;;;;2.57;0.80;;;13.70;99.90;;;;;;6242756;23;20414;-70
2022/10/19 09:57:25;;;;;;;7.53;0.83;;;13.80;99.90;;;;;;6243730;23;20491;-70
2022/10/19 09:59:52;;;;;;;3.03;0.53;;;13.80;99.90;;;;;;6243930;23;20744;-71
2022/10/19 10:02:21;;;;;;;2.73;0.30;;;13.90;99.90;;;;;;6243363;22;20450;-70
2022/10/19 10:04:56;;;;;;;0.27;0.27;;;14.10;99.90;;;;;;6243112;23;20422;-70
2022/10/19 10:07:28;;;;;;;1.70;0.53;;;14.20;99.90;;;;;;6242346;23;20406;-70
2022/10/19 10:09:55;;;;;;;1.13;0.30;;;14.20;99.90;;;;;;6242495;23;20442;-70
2022/10/19 10:12:22;;;;;;;1.80;0.70;;;14.30;99.90;;;;;;6242658;22;20451;-69
2022/10/19 10:14:51;;;;;;;0.43;0.43;;;14.40;99.90;;;;;;6242744;23;20430;-69
2022/10/19 10:17:20;;;;;;;0.97;0.30;;;14.40;99.90;;;;;;6242475;23;20423;-70
2022/10/19 10:20:01;;;;;;;0.30;0.30;;;14.60;99.90;;;;;;6240450;22;21051;-68
2022/10/19 10:22:32;;;;;;;0.87;0.20;;;14.70;99.90;;;;;;6242186;23;20727;-68
2022/10/19 10:24:58;;;;;;;0.23;0.23;;;14.50;99.90;;;;;;6242200;23;20422;-68
2022/10/19 10:27:30;;;;;;;0.20;0.20;;;14.50;99.90;;;;;;6242759;23;20427;-68
2022/10/19 10:29:57;;;;;;;0.50;0.40;;;14.40;99.90;;;;;;6242189;22;20447;-70
2022/10/19 10:32:25;;;;;;;0.50;0.50;;;14.20;99.90;;;;;;6242245;23;20443;-69
2022/10/19 10:34:59;;;;;;;0.20;0.20;;;14.20;99.90;;;;;;6243224;23;20457;-69
2022/10/19 10:37:34;;;;;;;0.30;0.30;;;14.30;99.90;;;;;;6242650;23;20415;-69
2022/10/19 10:40:01;;;;;;;0.40;0.20;;;14.20;99.90;;;;;;6242013;22;20449;-68
2022/10/19 10:42:30;;;;;;;0.57;0.30;;;14.00;99.90;;;;;;6241676;23;20419;-69
2022/10/19 10:44:58;;;;;;;0.20;0.20;;;13.90;99.90;;;;;;6243663;23;20424;-70
2022/10/19 10:47:26;;;;;;;0.50;0.50;;;14.00;99.90;;;;;;6242848;23;20494;-70
2022/10/19 10:49:56;;;;;;;2.10;0.50;;;14.20;99.90;;;;;;6242403;22;20808;-70
2022/10/19 10:52:23;;;;;;;2.80;0.30;;;14.20;99.90;;;;;;6242589;23;20451;-68
2022/10/19 10:55:02;;;;;;;2.97;0.50;;;14.20;99.90;;;;;;6241591;23;20445;-68
2022/10/19 10:57:33;;;;;;;0.60;0.27;;;14.10;99.90;;;;;;6242829;23;20869;-70
2022/10/19 11:00:06;;;;;;;0.27;0.27;;;14.20;99.90;;;;;;6242216;22;20940;-67
2022/10/19 11:02:41;;;;;;;0.40;0.40;;;14.20;99.90;;;;;;6241849;23;20415;-68
2022/10/19 11:05:13;;;;;;;3.53;0.50;;;14.40;99.90;;;;;;6242298;23;20437;-67
2022/10/19 11:07:43;;;;;;;0.20;0.20;;;14.40;99.90;;;;;;6242177;23;20403;-67
2022/10/19 11:10:20;;;;;;;0.27;0.27;;;14.50;99.90;;;;;;6251909;22;20447;-68
2022/10/19 11:12:53;;;;;;;0.30;0.30;;;14.60;99.90;;;;;;6241968;23;20431;-69
2022/10/19 11:15:24;;;;;;;0.40;0.27;;;14.70;99.90;;;;;;6242848;23;20736;-68
2022/10/19 11:18:01;;;;;;;3.50;0.30;;;14.70;99.90;;;;;;6242906;23;20416;-70
2022/10/19 11:20:32;;;;;;;0.33;0.33;;;14.60;99.90;;;;;;6242237;22;20553;-67
2022/10/19 11:23:06;;;;;;;1.80;0.23;;;14.50;99.90;;;;;;6241246;23;20407;-67
2022/10/19 11:25:45;;;;;;;4.17;0.60;;;14.50;99.90;;;;;;6241772;23;20777;-68
2022/10/19 11:28:23;;;;;;;3.13;0.40;;;14.50;99.90;;;;;;6242702;23;20407;-69
2022/10/19 11:30:59;;;;;;;0.20;0.20;;;14.50;99.90;;;;;;6241809;22;20787;-70
2022/10/19 11:33:41;;;;;;;0.43;0.43;;;14.50;99.90;;;;;;6241871;23;20750;-69
2022/10/19 11:36:19;;;;;;;1.23;0.40;;;14.50;99.90;;;;;;6242414;23;20427;-71
2022/10/19 11:39:00;;;;;;;0.30;0.30;;;14.50;99.90;;;;;;6241245;23;20874;-70
2022/10/19 11:41:37;;;;;;;2.77;0.70;;;14.50;99.90;;;;;;6241438;22;20434;-70
2022/10/19 11:44:22;;;;;;;2.00;0.47;;;14.50;99.90;;;;;;6242629;23;20410;-68
2022/10/19 11:47:01;;;;;;;3.80;0.57;;;14.50;99.90;;;;;;6242087;23;20402;-68
2022/10/19 11:49:41;;;;;;;0.30;0.30;;;14.50;99.90;;;;;;6242029;22;20403;-67
2022/10/19 11:52:14;;;;;;;0.20;0.20;;;14.50;99.90;;;;;;6240883;23;20748;-68
2022/10/19 11:54:53;;;;;;;0.20;0.20;;;14.40;99.90;;;;;;6242145;23;20412;-70
2022/10/19 11:57:25;;;;;;;0.43;0.43;;;14.30;99.90;;;;;;6242222;23;20829;-69
2022/10/19 12:00:02;;;;;;;2.10;0.30;;;14.30;99.90;;;;;;6241937;22;20473;-69
2022/10/19 12:02:50;;;;;;;0.43;0.43;;;14.30;99.90;;;;;;6241649;23;20403;-68
2022/10/19 12:05:21;;;;;;;0.50;0.50;;;14.30;99.90;;;;;;6242028;23;20485;-68
2022/10/19 12:08:03;;;;;;;0.30;0.30;;;14.40;99.90;;;;;;6241443;23;20415;-68
2022/10/19 12:10:40;;;;;;;2.20;0.50;;;14.60;99.90;;;;;;6240126;22;20443;-67
2022/10/19 12:13:12;;;;;;;0.43;0.43;;;14.80;99.90;;;;;;6241841;23;20430;-69
2022/10/19 12:15:42;;;;;;;0.77;0.50;;;15.00;99.90;;;;;;6242099;23;20405;-69
2022/10/19 12:18:14;;;;;;;0.30;0.30;;;15.00;99.90;;;;;;6241982;23;20411;-69
2022/10/19 12:20:47;;;;;;;0.40;0.20;;;15.00;99.90;;;;;;6241093;22;20455;-68
2022/10/19 12:23:27;;;;;;;4.27;1.40;;;15.10;99.90;;;;;;6240701;23;20518;-68
2022/10/19 12:25:57;;;;;;;0.40;0.40;;;15.00;99.90;;;;;;6241527;23;20426;-68
2022/10/19 12:28:29;;;;;;;1.23;0.40;;;14.90;99.90;;;;;;6241011;23;20504;-69
2022/10/19 12:30:57;;;;;;;0.20;0.20;;;14.80;99.90;;;;;;6239780;22;20945;-69
2022/10/19 12:33:32;;;;;;;0.30;0.30;;;14.70;99.90;;;;;;6240911;23;20473;-68
2022/10/19 12:36:09;;;;;;;12.17;0.60;;;14.70;99.90;;;;;;6242076;23;20407;-67
2022/10/19 12:38:44;;;;;;;0.90;0.53;;;14.70;99.90;;;;;;6240579;23;20414;-68
2022/10/19 12:41:20;;;;;;;0.67;0.67;;;14.70;99.90;;;;;;6241125;22;20481;-69
2022/10/19 12:44:09;;;;;;;1.87;0.53;;;14.60;99.90;;;;;;6241133;23;20411;-68
2022/10/19 12:46:49;;;;;;;0.40;0.40;;;14.60;99.90;;;;;;6241744;23;20431;-68
2022/10/19 12:49:37;;;;;;;0.40;0.27;;;14.70;99.90;;;;;;6250417;22;20426;-68
2022/10/19 12:52:06;;;;;;;1.00;0.50;;;14.70;99.90;;;;;;6239695;23;20495;-69
2022/10/19 12:54:36;;;;;;;0.40;0.40;;;14.80;99.90;;;;;;6241758;23;20191;-68
2022/10/19 12:57:04;;;;;;;0.30;0.30;;;14.80;99.90;;;;;;6241120;23;20427;-68
2022/10/19 12:59:34;;;;;;;0.77;0.77;;;14.80;99.90;;;;;;6240894;22;20422;-68
2022/10/19 13:02:04;;;;;;;7.53;0.50;;;14.80;99.90;;;;;;6241720;23;20427;-68
2022/10/19 13:04:32;;;;;;;3.10;0.67;;;14.80;99.90;;;;;;6241664;23;20524;-69
2022/10/19 13:07:02;;;;;;;1.60;0.33;;;14.80;99.90;;;;;;6240997;23;20452;-68
2022/10/19 13:09:32;;;;;;;0.60;0.60;;;14.70;99.90;;;;;;6240510;22;20457;-68
2022/10/19 13:12:29;;;;;;;2.03;0.30;;;14.70;99.90;;;;;;6240896;23;20454;-67
2022/10/19 13:14:59;;;;;;;0.50;0.50;;;14.80;99.90;;;;;;6241828;23;20612;-66
2022/10/19 13:17:42;;;;;;;0.90;0.73;;;14.80;99.90;;;;;;6241870;23;20430;-68
2022/10/19 13:20:51;;;;;;;0.20;0.20;;;14.80;99.90;;;;;;6242449;22;20561;-70
2022/10/19 13:23:39;;;;;;;0.20;0.20;;;14.80;99.90;;;;;;6231025;23;20426;-69
2022/10/19 13:26:34;;;;;;;0.30;0.30;;;14.90;99.90;;;;;;6253320;23;20708;-69
2022/10/19 13:29:01;;;;;;;0.40;0.40;;;14.80;99.90;;;;;;6189035;23;20473;-70
2022/10/19 13:31:31;;;;;;;0.40;0.40;;;14.90;99.90;;;;;;6243306;22;20443;-69
2022/10/19 13:33:58;;;;;;;0.37;0.37;;;14.90;99.90;;;;;;6243701;23;20506;-70
2022/10/19 13:36:26;;;;;;;0.67;0.40;;;14.90;99.90;;;;;;6243749;23;20423;-69
2022/10/19 13:39:14;;;;;;;0.43;0.43;;;14.90;99.90;;;;;;6242752;23;20477;-70
2022/10/19 13:41:55;;;;;;;2.00;0.50;;;14.90;99.90;;;;;;6242961;23;20735;-69
2022/10/19 13:44:27;;;;;;;0.40;0.40;;;14.80;99.90;;;;;;6243691;23;20446;-69
2022/10/19 13:47:34;;;;;;;2.47;0.83;;;14.80;99.90;;;;;;6243389;23;20430;-69
2022/10/19 13:50:19;;;;;;;0.30;0.30;;;14.80;99.90;;;;;;6243144;22;20536;-70
2022/10/19 13:53:22;;;;;;;2.53;0.20;;;14.80;99.90;;;;;;6242814;23;20431;-68
2022/10/19 13:55:59;;;;;;;0.20;0.20;;;14.80;99.90;;;;;;6243319;23;20478;-70
2022/10/19 13:59:05;;;;;;;0.20;0.20;;;14.80;99.90;;;;;;6243994;23;20441;-69
2022/10/19 14:01:45;;;;;;;1.50;0.40;;;14.80;99.90;;;;;;6243531;22;20769;-70
2022/10/19 14:04:40;;;;;;;2.10;0.40;;;14.70;99.90;;;;;;6243654;23;20411;-69
2022/10/19 14:07:13;;;;;;;0.20;0.20;;;14.80;99.90;;;;;;6243226;23;20430;-69
2022/10/19 14:10:06;;;;;;;0.40;0.40;;;14.80;99.90;;;;;;6242587;22;20447;-69
2022/10/19 14:12:36;;;;;;;2.25;0.43;;;14.80;99.90;;;;;;6242505;23;20419;-70
2022/10/19 14:15:22;;;;;;;1.80;0.70;;;14.80;99.90;;;;;;6243264;23;20283;-70
2022/10/19 14:17:49;;;;;;;0.30;0.30;;;14.90;99.90;;;;;;6243028;23;20852;-70
2022/10/19 14:20:27;;;;;;;2.23;0.47;;;14.90;99.90;;;;;;6242226;22;20455;-70
2022/10/19 14:22:54;;;;;;;2.10;0.57;;;14.90;99.90;;;;;;6242159;23;20414;-70
2022/10/19 14:25:22;;;;;;;0.30;0.30;;;14.80;99.90;;;;;;6242732;23;20938;-70
2022/10/19 14:27:56;;;;;;;0.63;0.50;;;14.70;99.90;;;;;;6242587;23;20889;-70
2022/10/19 14:30:25;;;;;;;0.83;0.40;;;14.70;99.90;;;;;;6242147;22;20454;-70
2022/10/19 14:32:54;;;;;;;2.27;0.77;;;14.70;99.90;;;;;;6242898;23;20770;-70
2022/10/19 14:35:24;;;;;;;0.40;0.40;;;14.60;99.90;;;;;;6243427;23;20429;-70
2022/10/19 14:37:51;;;;;;;0.27;0.27;;;14.50;99.90;;;;;;6241971;23;20430;-69
2022/10/19 14:40:31;;;;;;;0.20;0.20;;;14.50;99.90;;;;;;6241659;22;20512;-69
2022/10/19 14:42:59;;;;;;;0.40;0.30;;;14.40;99.90;;;;;;6242874;23;20888;-69
2022/10/19 14:45:29;;;;;;;0.30;0.30;;;14.40;99.90;;;;;;6243098;23;20428;-69
2022/10/19 14:47:58;;;;;;;0.93;0.40;;;14.30;99.90;;;;;;6242913;23;20426;-69
2022/10/19 14:50:35;;;;;;;0.40;0.40;;;14.30;99.90;;;;;;6242797;22;20697;-69
2022/10/19 14:53:12;;;;;;;0.47;0.37;;;14.30;99.90;;;;;;6242295;23;20438;-69
2022/10/19 14:55:40;;;;;;;1.30;0.20;;;14.30;99.90;;;;;;6242582;23;20413;-69
2022/10/19 14:58:12;;;;;;;6.23;0.47;;;14.20;99.90;;;;;;6242467;23;20429;-70
2022/10/19 15:00:39;;;;;;;0.20;0.20;;;14.20;99.90;;;;;;6242562;22;20584;-70
2022/10/19 15:03:10;;;;;;;0.43;0.40;;;14.20;99.90;;;;;;6242267;23;20426;-70
2022/10/19 15:05:45;;;;;;;0.30;0.30;;;14.10;99.90;;;;;;6242077;23;20414;-69
2022/10/19 15:08:30;;;;;;;0.40;0.40;;;14.10;99.90;;;;;;6242009;23;20407;-71
2022/10/19 15:10:56;;;;;;;0.30;0.30;;;14.10;99.90;;;;;;6241183;22;20442;-69
2022/10/19 15:13:26;;;;;;;1.07;0.40;;;14.10;99.90;;;;;;6242012;23;20442;-69
2022/10/19 15:15:54;;;;;;;0.30;0.30;;;14.00;99.90;;;;;;6242766;23;20422;-68
2022/10/19 15:18:23;;;;;;;0.30;0.30;;;14.00;99.90;;;;;;6242608;23;20422;-67
2022/10/19 15:21:04;;;;;;;0.83;0.53;;;14.00;99.90;;;;;;6240764;22;20450;-69
2022/10/19 15:23:42;;;;;;;0.73;0.40;;;13.90;99.90;;;;;;6241738;23;20410;-68
2022/10/19 15:26:18;;;;;;;0.20;0.20;;;13.80;99.90;;;;;;6241004;23;20413;-69
2022/10/19 15:28:46;;;;;;;0.20;0.20;;;13.80;99.90;;;;;;6245460;23;20421;-69
2022/10/19 15:31:18;;;;;;;1.03;0.50;;;13.80;99.90;;;;;;6264360;22;20442;-70
2022/10/19 15:33:49;;;;;;;0.43;0.43;;;13.70;99.90;;;;;;6251076;23;20451;-68
2022/10/19 15:36:18;;;;;;;0.27;0.27;;;13.70;99.90;;;;;;6251055;23;20972;-68
2022/10/19 15:38:46;;;;;;;1.13;1.13;;;13.60;99.90;;;;;;6246873;23;20422;-68
2022/10/19 15:41:19;;;;;;;1.40;0.70;;;13.60;99.90;;;;;;6241926;22;20453;-68
2022/10/19 15:43:48;;;;;;;5.00;0.60;;;13.50;99.90;;;;;;6241876;23;20497;-68
2022/10/19 15:46:56;;;;;;;0.60;0.60;;;13.40;99.90;;;;;;6242702;23;20406;-68
2022/10/19 15:49:52;;;;;;;0.30;0.30;;;13.40;99.90;;;;;;6241587;22;20417;-68
2022/10/19 15:52:22;;;;;;;3.13;0.30;;;13.30;99.90;;;;;;6242520;23;20407;-69
2022/10/19 15:54:49;;;;;;;0.30;0.30;;;13.20;99.90;;;;;;6240874;23;20425;-69
2022/10/19 15:57:28;;;;;;;0.52;0.40;;;13.10;99.90;;;;;;6242226;23;20421;-68
2022/10/19 15:59:57;;;;;;;0.20;0.20;;;13.10;99.90;;;;;;6242455;22;20212;-69
2022/10/19 16:02:24;;;;;;;1.05;1.05;;;13.00;99.90;;;;;;6241952;23;20425;-69
2022/10/19 16:04:51;;;;;;;2.43;0.80;;;12.90;99.90;;;;;;6242084;23;20249;-68
2022/10/19 16:07:24;;;;;;;0.30;0.30;;;12.80;99.90;;;;;;6241200;23;20799;-69
2022/10/19 16:09:51;;;;;;;0.50;0.50;;;12.70;99.90;;;;;;6241836;22;20448;-69
2022/10/19 16:12:17;;;;;;;0.35;0.35;;;12.70;99.90;;;;;;6241980;23;20261;-69
2022/10/19 16:14:44;;;;;;;1.15;1.00;;;12.60;99.90;;;;;;6241066;23;20205;-68
2022/10/19 16:17:13;;;;;;;0.40;0.40;;;12.50;99.90;;;;;;6242313;23;20201;-68
2022/10/19 16:19:40;;;;;;;0.20;0.20;;;12.50;99.90;;;;;;6240880;22;20459;-69
2022/10/19 16:22:06;;;;;;;2.13;1.03;;;12.40;99.90;;;;;;6240686;23;20194;-69
2022/10/19 16:24:35;;;;;;;1.60;0.82;;;12.30;99.90;;;;;;6241071;23;20505;-69
2022/10/19 16:27:01;;;;;;;0.50;0.50;;;12.20;99.90;;;;;;6240736;23;20185;-68
2022/10/19 16:29:28;;;;;;;0.52;0.52;;;12.20;99.90;;;;;;6241382;22;20493;-68
2022/10/19 16:31:55;;;;;;;0.73;0.73;;;12.10;99.90;;;;;;6241749;23;20557;-69
2022/10/19 16:34:21;;;;;;;0.70;0.65;;;12.00;99.90;;;;;;6242321;23;20297;-69
2022/10/19 16:36:48;;;;;;;1.33;0.80;;;12.00;99.90;;;;;;6240299;23;20183;-69
2022/10/19 16:39:15;;;;;;;0.80;0.80;;;11.90;99.90;;;;;;6242514;23;20193;-69
2022/10/19 16:41:44;;;;;;;0.60;0.55;;;11.80;99.90;;;;;;6240548;23;20201;-68
2022/10/19 16:44:12;;;;;;;2.47;0.52;;;11.80;99.90;;;;;;6241612;23;20234;-70
2022/10/19 16:46:38;;;;;;;1.15;1.15;;;11.70;99.90;;;;;;6241793;23;20186;-69
2022/10/19 16:49:05;;;;;;;1.10;1.10;;;11.60;99.90;;;;;;6241920;23;20200;-69
2022/10/19 16:51:37;;;;;;;1.60;1.50;;;11.60;99.90;;;;;;6241267;22;20217;-69
2022/10/19 16:54:05;;;;;;;2.00;1.90;;;11.50;99.90;;;;;;6240655;23;20196;-69
2022/10/19 16:56:33;;;;;;;2.35;2.25;;;11.50;99.90;;;;;;6243188;23;20189;-69
2022/10/19 16:59:03;;;;;;;1.30;1.30;;;11.40;99.90;;;;;;6243774;23;20181;-70
2022/10/19 17:01:31;;;;;;;2.60;2.50;;;11.30;99.90;;;;;;6243436;22;20211;-69
2022/10/19 17:03:58;;;;;;;1.50;1.40;;;11.30;99.90;;;;;;6243452;23;20184;-70
2022/10/19 17:06:26;;;;;;;1.13;1.13;;;11.20;99.90;;;;;;6243202;23;20184;-69
2022/10/19 17:08:55;;;;;;;2.15;1.58;;;11.20;99.90;;;;;;6243535;23;20185;-69